This is the latest recevied weather packets stored in our database for station/object NR5ON-13. If no packets are shown the sender has not sent any weather packets the latest 10 day(s).
| Time | Temp. | Humidity | Pressure | Rain* | Wind** | Luminosity | Snow |
|---|---|---|---|---|---|---|---|
| 1777396715 | 13.89° C | 17% | 1020.8 hPa | 0 mm | - | - | - |
| 1777396112 | 13.89° C | 16% | 1021 hPa | 0 mm | - | - | - |
| 1777394309 | 12.78° C | 18% | 1021 hPa | 0 mm | - | - | - |
| 1777394020 | 12.78° C | 17% | 1020.9 hPa | 0 mm | - | - | - |
| 1777393419 | 13.33° C | 18% | 1020.9 hPa | 0 mm | - | - | - |
| 1777392217 | 12.22° C | 20% | 1020.8 hPa | 0 mm | - | - | - |
| 1777389520 | 10.56° C | 21% | 1020.4 hPa | 0 mm | - | - | - |
| 1777387119 | 8.89° C | 25% | 1020.6 hPa | 0 mm | - | - | - |
| 1777385917 | 8.33° C | 26% | 1020.7 hPa | 0 mm | - | - | - |
| 1777381708 | 2.78° C | 39% | 1020.2 hPa | 0 mm | - | - | - |
| 1777380812 | 2.22° C | 39% | 1019.7 hPa | 0 mm | - | - | - |
| 1777378115 | 4.44° C | 31% | 1019.1 hPa | 0 mm | - | - | - |
| 1777377804 | 5° C | 30% | 1019.1 hPa | 0 mm | - | - | - |
| 1777377515 | 5° C | 28% | 1019.1 hPa | 0 mm | - | - | - |
| 1777375708 | 6.67° C | 26% | 1018.7 hPa | 0 mm | - | - | - |
| 1777374820 | 6.67° C | 27% | 1018.6 hPa | 0 mm | - | - | - |
| 1777374220 | 7.22° C | 26% | 1018.5 hPa | 0 mm | - | - | - |
| 1777373012 | 6.67° C | 27% | 1018.3 hPa | 0 mm | - | - | - |
| 1777372720 | 6.67° C | 26% | 1018.3 hPa | 0 mm | - | - | - |
| 1777372409 | 6.67° C | 26% | 1018.1 hPa | 0 mm | - | - | - |
| 1777372117 | 6.67° C | 25% | 1018.1 hPa | 0 mm | - | - | - |
| 1777371809 | 6.67° C | 25% | 1018.1 hPa | 0 mm | - | - | - |
| 1777371517 | 6.67° C | 25% | 1018.1 hPa | 0 mm | - | - | - |
| 1777371206 | 6.67° C | 25% | 1018.1 hPa | 0 mm | - | - | - |
| 1777370915 | 6.67° C | 25% | 1018 hPa | 0 mm | - | - | - |
* Rain latest hour (hover to see other rain measurements)
** Current wind speed in m/s (hover to see current wind gust speed)